sensor_id;sensor_type;location;lat;lon;timestamp;pressure;altitude;pressure_sealevel;temperature;humidity
40245;BME280;25963;42.694;23.600;2022-07-23T00:01:53;95460.88;;;25.28;41.19
40245;BME280;25963;42.694;23.600;2022-07-23T00:04:19;95466.91;;;24.84;42.01
40245;BME280;25963;42.694;23.600;2022-07-23T00:06:44;95465.59;;;24.54;43.04
40245;BME280;25963;42.694;23.600;2022-07-23T00:09:10;95468.31;;;24.35;43.63
40245;BME280;25963;42.694;23.600;2022-07-23T00:11:35;95466.91;;;24.70;42.90
40245;BME280;25963;42.694;23.600;2022-07-23T00:14:00;95465.50;;;24.59;43.25
40245;BME280;25963;42.694;23.600;2022-07-23T00:16:26;95472.47;;;24.74;42.72
40245;BME280;25963;42.694;23.600;2022-07-23T00:18:51;95470.28;;;24.76;43.05
40245;BME280;25963;42.694;23.600;2022-07-23T00:21:17;95475.28;;;24.96;42.75
40245;BME280;25963;42.694;23.600;2022-07-23T00:23:42;95473.72;;;24.95;42.69
40245;BME280;25963;42.694;23.600;2022-07-23T00:26:08;95468.81;;;25.25;41.79
40245;BME280;25963;42.694;23.600;2022-07-23T00:28:33;95458.28;;;25.23;41.13
40245;BME280;25963;42.694;23.600;2022-07-23T00:30:59;95466.38;;;25.10;42.07
40245;BME280;25963;42.694;23.600;2022-07-23T00:33:24;95469.38;;;24.94;41.50
40245;BME280;25963;42.694;23.600;2022-07-23T00:35:50;95466.91;;;24.84;41.42
40245;BME280;25963;42.694;23.600;2022-07-23T00:38:15;95461.00;;;24.54;41.18
40245;BME280;25963;42.694;23.600;2022-07-23T00:40:41;95461.19;;;24.58;40.96
40245;BME280;25963;42.694;23.600;2022-07-23T00:43:06;95457.03;;;24.66;41.10
40245;BME280;25963;42.694;23.600;2022-07-23T00:45:32;95457.50;;;24.81;40.64
40245;BME280;25963;42.694;23.600;2022-07-23T00:47:58;95452.09;;;25.09;40.15
40245;BME280;25963;42.694;23.600;2022-07-23T00:50:24;95457.00;;;25.21;41.02
40245;BME280;25963;42.694;23.600;2022-07-23T00:52:50;95460.38;;;25.26;41.28
40245;BME280;25963;42.694;23.600;2022-07-23T00:55:17;95446.63;;;25.14;40.69
40245;BME280;25963;42.694;23.600;2022-07-23T00:57:42;95450.59;;;24.62;40.77
40245;BME280;25963;42.694;23.600;2022-07-23T01:00:10;95456.00;;;24.62;41.41
40245;BME280;25963;42.694;23.600;2022-07-23T01:02:37;95464.31;;;24.79;41.05
40245;BME280;25963;42.694;23.600;2022-07-23T01:05:04;95448.63;;;24.67;41.11
40245;BME280;25963;42.694;23.600;2022-07-23T01:07:29;95446.72;;;24.68;41.76
40245;BME280;25963;42.694;23.600;2022-07-23T01:09:55;95447.50;;;24.82;41.20
40245;BME280;25963;42.694;23.600;2022-07-23T01:12:21;95449.50;;;24.49;41.99
40245;BME280;25963;42.694;23.600;2022-07-23T01:14:57;95453.91;;;24.58;41.83
40245;BME280;25963;42.694;23.600;2022-07-23T01:17:23;95453.09;;;24.58;41.82
40245;BME280;25963;42.694;23.600;2022-07-23T01:19:48;95446.22;;;24.52;42.32
40245;BME280;25963;42.694;23.600;2022-07-23T01:22:14;95447.72;;;24.58;41.96
40245;BME280;25963;42.694;23.600;2022-07-23T01:24:40;95451.50;;;24.71;41.95
40245;BME280;25963;42.694;23.600;2022-07-23T01:27:05;95454.13;;;24.76;41.81
40245;BME280;25963;42.694;23.600;2022-07-23T01:29:31;95449.50;;;24.76;42.33
40245;BME280;25963;42.694;23.600;2022-07-23T01:31:56;95440.91;;;24.88;41.77
40245;BME280;25963;42.694;23.600;2022-07-23T01:34:22;95432.09;;;25.10;41.38
40245;BME280;25963;42.694;23.600;2022-07-23T01:36:47;95443.50;;;25.21;41.74
40245;BME280;25963;42.694;23.600;2022-07-23T01:39:12;95441.28;;;25.09;41.26
40245;BME280;25963;42.694;23.600;2022-07-23T01:41:38;95437.06;;;25.31;40.75
40245;BME280;25963;42.694;23.600;2022-07-23T01:44:03;95436.69;;;25.37;41.64
40245;BME280;25963;42.694;23.600;2022-07-23T01:46:29;95435.38;;;25.57;42.25
40245;BME280;25963;42.694;23.600;2022-07-23T01:48:54;95435.38;;;25.57;41.59
40245;BME280;25963;42.694;23.600;2022-07-23T01:51:20;95434.44;;;25.39;41.85
40245;BME280;25963;42.694;23.600;2022-07-23T01:53:45;95435.56;;;25.38;41.86
40245;BME280;25963;42.694;23.600;2022-07-23T01:56:10;95437.00;;;25.22;41.70
40245;BME280;25963;42.694;23.600;2022-07-23T01:58:36;95443.31;;;25.17;42.72
40245;BME280;25963;42.694;23.600;2022-07-23T02:01:01;95440.00;;;25.20;43.29
40245;BME280;25963;42.694;23.600;2022-07-23T02:03:27;95442.88;;;25.24;42.86
40245;BME280;25963;42.694;23.600;2022-07-23T02:05:52;95443.91;;;25.14;41.66
40245;BME280;25963;42.694;23.600;2022-07-23T02:08:18;95444.72;;;25.01;42.13
40245;BME280;25963;42.694;23.600;2022-07-23T02:10:44;95450.00;;;25.06;42.31
40245;BME280;25963;42.694;23.600;2022-07-23T02:13:09;95436.53;;;24.92;42.71
40245;BME280;25963;42.694;23.600;2022-07-23T02:15:35;95449.13;;;24.83;42.54
40245;BME280;25963;42.694;23.600;2022-07-23T02:18:01;95445.09;;;24.94;42.58
40245;BME280;25963;42.694;23.600;2022-07-23T02:20:26;95448.59;;;24.95;41.78
40245;BME280;25963;42.694;23.600;2022-07-23T02:22:52;95451.31;;;24.67;42.70
40245;BME280;25963;42.694;23.600;2022-07-23T02:25:18;95443.13;;;24.86;42.35
40245;BME280;25963;42.694;23.600;2022-07-23T02:27:43;95441.88;;;25.06;42.11
40245;BME280;25963;42.694;23.600;2022-07-23T02:30:09;95451.50;;;25.26;42.19
40245;BME280;25963;42.694;23.600;2022-07-23T02:32:35;95455.41;;;25.20;41.04
40245;BME280;25963;42.694;23.600;2022-07-23T02:35:02;95444.19;;;25.26;41.68
40245;BME280;25963;42.694;23.600;2022-07-23T02:37:28;95457.69;;;25.26;40.97
40245;BME280;25963;42.694;23.600;2022-07-23T02:39:53;95455.88;;;25.36;40.38
40245;BME280;25963;42.694;23.600;2022-07-23T02:42:19;95462.19;;;25.31;41.44
40245;BME280;25963;42.694;23.600;2022-07-23T02:44:44;95461.66;;;25.43;40.97
40245;BME280;25963;42.694;23.600;2022-07-23T02:47:10;95466.22;;;25.56;40.36
40245;BME280;25963;42.694;23.600;2022-07-23T02:49:35;95468.00;;;25.61;40.83
40245;BME280;25963;42.694;23.600;2022-07-23T02:52:01;95476.50;;;25.18;41.83
40245;BME280;25963;42.694;23.600;2022-07-23T02:54:26;95470.13;;;25.14;41.37
40245;BME280;25963;42.694;23.600;2022-07-23T02:56:52;95478.22;;;25.14;41.60
40245;BME280;25963;42.694;23.600;2022-07-23T02:59:18;95474.28;;;25.06;42.61
40245;BME280;25963;42.694;23.600;2022-07-23T03:01:43;95478.97;;;25.00;41.95
40245;BME280;25963;42.694;23.600;2022-07-23T03:04:09;95480.47;;;25.06;42.41
40245;BME280;25963;42.694;23.600;2022-07-23T03:06:35;95476.69;;;25.08;41.53
40245;BME280;25963;42.694;23.600;2022-07-23T03:09:00;95472.09;;;24.94;41.36
40245;BME280;25963;42.694;23.600;2022-07-23T03:11:26;95484.28;;;25.05;41.95
40245;BME280;25963;42.694;23.600;2022-07-23T03:13:51;95479.88;;;24.82;41.92
40245;BME280;25963;42.694;23.600;2022-07-23T03:16:17;95482.28;;;24.97;42.63
40245;BME280;25963;42.694;23.600;2022-07-23T03:18:42;95483.38;;;24.96;42.37
40245;BME280;25963;42.694;23.600;2022-07-23T03:21:08;95485.19;;;24.73;42.69
40245;BME280;25963;42.694;23.600;2022-07-23T03:23:33;95485.97;;;24.74;42.80
40245;BME280;25963;42.694;23.600;2022-07-23T03:25:59;95488.66;;;24.74;42.50
40245;BME280;25963;42.694;23.600;2022-07-23T03:28:24;95485.56;;;24.67;42.44
40245;BME280;25963;42.694;23.600;2022-07-23T03:30:50;95495.56;;;24.66;42.20
40245;BME280;25963;42.694;23.600;2022-07-23T03:33:17;95486.28;;;24.72;42.77
40245;BME280;25963;42.694;23.600;2022-07-23T03:35:44;95502.78;;;24.98;42.74
40245;BME280;25963;42.694;23.600;2022-07-23T03:38:09;95492.09;;;24.93;42.08
40245;BME280;25963;42.694;23.600;2022-07-23T03:40:35;95489.69;;;25.05;42.10
40245;BME280;25963;42.694;23.600;2022-07-23T03:43:00;95488.31;;;25.22;41.79
40245;BME280;25963;42.694;23.600;2022-07-23T03:45:26;95484.25;;;25.33;41.90
40245;BME280;25963;42.694;23.600;2022-07-23T03:47:52;95491.28;;;25.20;40.15
40245;BME280;25963;42.694;23.600;2022-07-23T03:50:17;95491.47;;;24.96;40.71
40245;BME280;25963;42.694;23.600;2022-07-23T03:52:43;95494.09;;;25.29;40.71
40245;BME280;25963;42.694;23.600;2022-07-23T03:55:08;95480.97;;;25.36;40.51
40245;BME280;25963;42.694;23.600;2022-07-23T03:57:34;95493.91;;;25.62;40.15
40245;BME280;25963;42.694;23.600;2022-07-23T04:00:00;95505.06;;;25.46;41.64
40245;BME280;25963;42.694;23.600;2022-07-23T04:02:25;95499.56;;;25.74;41.40
40245;BME280;25963;42.694;23.600;2022-07-23T04:04:51;95494.16;;;25.88;42.09
40245;BME280;25963;42.694;23.600;2022-07-23T04:07:17;95492.63;;;26.18;39.54
40245;BME280;25963;42.694;23.600;2022-07-23T04:09:45;95500.31;;;26.87;38.89
40245;BME280;25963;42.694;23.600;2022-07-23T04:12:11;95492.56;;;28.04;36.12
40245;BME280;25963;42.694;23.600;2022-07-23T04:14:36;95496.44;;;29.44;33.30
40245;BME280;25963;42.694;23.600;2022-07-23T04:17:02;95494.69;;;30.56;31.97
40245;BME280;25963;42.694;23.600;2022-07-23T04:19:27;95492.06;;;31.42;31.58
40245;BME280;25963;42.694;23.600;2022-07-23T04:21:53;95487.13;;;32.41;29.36
40245;BME280;25963;42.694;23.600;2022-07-23T04:24:18;95484.75;;;33.15;29.09
40245;BME280;25963;42.694;23.600;2022-07-23T04:26:44;95485.13;;;33.84;28.54
40245;BME280;25963;42.694;23.600;2022-07-23T04:29:10;95494.94;;;34.24;27.94
40245;BME280;25963;42.694;23.600;2022-07-23T04:31:35;95501.19;;;34.86;27.07
40245;BME280;25963;42.694;23.600;2022-07-23T04:34:01;95499.97;;;35.56;25.75
40245;BME280;25963;42.694;23.600;2022-07-23T04:36:26;95501.47;;;36.07;26.04
40245;BME280;25963;42.694;23.600;2022-07-23T04:38:52;95499.59;;;35.84;25.89
40245;BME280;25963;42.694;23.600;2022-07-23T04:41:17;95507.31;;;36.39;26.01
40245;BME280;25963;42.694;23.600;2022-07-23T04:43:43;95502.72;;;36.88;24.34
40245;BME280;25963;42.694;23.600;2022-07-23T04:46:08;95506.25;;;37.91;23.34
40245;BME280;25963;42.694;23.600;2022-07-23T04:48:35;95500.66;;;38.50;22.69
40245;BME280;25963;42.694;23.600;2022-07-23T04:51:01;95501.50;;;38.97;21.75
40245;BME280;25963;42.694;23.600;2022-07-23T04:53:26;95504.28;;;39.37;21.07
40245;BME280;25963;42.694;23.600;2022-07-23T04:55:52;95498.31;;;39.63;20.45
40245;BME280;25963;42.694;23.600;2022-07-23T04:58:17;95511.38;;;39.48;21.08
40245;BME280;25963;42.694;23.600;2022-07-23T05:00:42;95506.22;;;39.58;20.80
40245;BME280;25963;42.694;23.600;2022-07-23T05:03:08;95506.53;;;39.99;20.80
40245;BME280;25963;42.694;23.600;2022-07-23T05:05:33;95510.78;;;40.32;20.47
40245;BME280;25963;42.694;23.600;2022-07-23T05:07:59;95509.84;;;40.64;19.98
40245;BME280;25963;42.694;23.600;2022-07-23T05:10:24;95513.00;;;40.59;19.42
40245;BME280;25963;42.694;23.600;2022-07-23T05:12:50;95512.94;;;40.73;19.41
40245;BME280;25963;42.694;23.600;2022-07-23T05:15:15;95508.41;;;40.34;19.27
40245;BME280;25963;42.694;23.600;2022-07-23T05:17:40;95509.13;;;40.46;19.40
40245;BME280;25963;42.694;23.600;2022-07-23T05:20:06;95519.72;;;40.69;19.40
40245;BME280;25963;42.694;23.600;2022-07-23T05:22:32;95516.09;;;40.75;20.26
40245;BME280;25963;42.694;23.600;2022-07-23T05:24:58;95518.31;;;40.95;19.38
40245;BME280;25963;42.694;23.600;2022-07-23T05:27:23;95519.94;;;40.92;19.31
40245;BME280;25963;42.694;23.600;2022-07-23T05:29:50;95525.47;;;40.89;19.04
40245;BME280;25963;42.694;23.600;2022-07-23T05:32:15;95522.47;;;40.65;19.58
40245;BME280;25963;42.694;23.600;2022-07-23T05:34:41;95532.47;;;41.11;18.73
40245;BME280;25963;42.694;23.600;2022-07-23T05:37:06;95525.03;;;41.53;19.11
40245;BME280;25963;42.694;23.600;2022-07-23T05:39:32;95532.84;;;41.13;18.81
40245;BME280;25963;42.694;23.600;2022-07-23T05:41:57;95528.41;;;40.67;19.59
40245;BME280;25963;42.694;23.600;2022-07-23T05:44:22;95529.63;;;40.52;19.76
40245;BME280;25963;42.694;23.600;2022-07-23T05:46:48;95533.91;;;40.71;20.54
40245;BME280;25963;42.694;23.600;2022-07-23T05:49:13;95539.03;;;40.72;19.78
40245;BME280;25963;42.694;23.600;2022-07-23T05:51:39;95531.00;;;40.92;20.02
40245;BME280;25963;42.694;23.600;2022-07-23T05:54:04;95536.13;;;40.94;20.28
40245;BME280;25963;42.694;23.600;2022-07-23T05:56:29;95534.16;;;40.91;19.66
40245;BME280;25963;42.694;23.600;2022-07-23T05:58:55;95529.13;;;40.78;20.99
40245;BME280;25963;42.694;23.600;2022-07-23T06:01:20;95520.31;;;41.50;19.87
40245;BME280;25963;42.694;23.600;2022-07-23T06:03:47;95532.69;;;41.80;18.99
40245;BME280;25963;42.694;23.600;2022-07-23T06:06:13;95538.84;;;41.01;19.50
40245;BME280;25963;42.694;23.600;2022-07-23T06:08:38;95535.19;;;41.18;19.70
40245;BME280;25963;42.694;23.600;2022-07-23T06:11:04;95534.53;;;40.96;20.08
40245;BME280;25963;42.694;23.600;2022-07-23T06:13:29;95522.50;;;40.61;18.79
40245;BME280;25963;42.694;23.600;2022-07-23T06:15:54;95526.81;;;40.70;19.24
40245;BME280;25963;42.694;23.600;2022-07-23T06:18:20;95519.16;;;40.88;20.12
40245;BME280;25963;42.694;23.600;2022-07-23T06:20:45;95523.63;;;40.71;19.23
40245;BME280;25963;42.694;23.600;2022-07-23T06:23:11;95513.84;;;40.52;20.50
40245;BME280;25963;42.694;23.600;2022-07-23T06:25:37;95520.44;;;40.76;20.49
40245;BME280;25963;42.694;23.600;2022-07-23T06:28:03;95514.50;;;40.74;20.83
40245;BME280;25963;42.694;23.600;2022-07-23T06:30:29;95518.78;;;40.90;20.91
40245;BME280;25963;42.694;23.600;2022-07-23T06:32:54;95519.72;;;40.65;20.99
40245;BME280;25963;42.694;23.600;2022-07-23T06:35:19;95519.69;;;40.72;20.78
40245;BME280;25963;42.694;23.600;2022-07-23T06:37:45;95515.41;;;40.57;20.80
40245;BME280;25963;42.694;23.600;2022-07-23T06:40:11;95513.88;;;41.15;19.91
40245;BME280;25963;42.694;23.600;2022-07-23T06:42:38;95521.22;;;40.77;20.24
40245;BME280;25963;42.694;23.600;2022-07-23T06:45:05;95516.69;;;41.01;20.10
40245;BME280;25963;42.694;23.600;2022-07-23T06:47:31;95510.50;;;40.86;20.71
40245;BME280;25963;42.694;23.600;2022-07-23T06:49:56;95514.06;;;40.83;20.66
40245;BME280;25963;42.694;23.600;2022-07-23T06:52:22;95507.66;;;40.23;20.54
40245;BME280;25963;42.694;23.600;2022-07-23T06:54:47;95511.00;;;39.32;20.63
40245;BME280;25963;42.694;23.600;2022-07-23T06:57:12;95499.16;;;39.21;22.33
40245;BME280;25963;42.694;23.600;2022-07-23T06:59:38;95503.09;;;39.09;24.17
40245;BME280;25963;42.694;23.600;2022-07-23T07:02:07;95499.94;;;39.25;22.36
40245;BME280;25963;42.694;23.600;2022-07-23T07:04:33;95493.22;;;39.65;21.45
40245;BME280;25963;42.694;23.600;2022-07-23T07:06:59;95504.25;;;39.19;24.05
40245;BME280;25963;42.694;23.600;2022-07-23T07:09:25;95497.97;;;39.18;20.93
40245;BME280;25963;42.694;23.600;2022-07-23T07:11:51;95500.34;;;39.23;20.32
40245;BME280;25963;42.694;23.600;2022-07-23T07:14:17;95497.56;;;39.23;21.48
40245;BME280;25963;42.694;23.600;2022-07-23T07:16:42;95481.03;;;39.06;21.08
40245;BME280;25963;42.694;23.600;2022-07-23T07:19:08;95486.06;;;38.50;21.10
40245;BME280;25963;42.694;23.600;2022-07-23T07:21:34;95494.63;;;38.27;21.18
40245;BME280;25963;42.694;23.600;2022-07-23T07:23:59;95488.91;;;39.03;22.73
40245;BME280;25963;42.694;23.600;2022-07-23T07:26:26;95476.28;;;39.10;20.79
40245;BME280;25963;42.694;23.600;2022-07-23T07:28:51;95484.78;;;38.26;22.07
40245;BME280;25963;42.694;23.600;2022-07-23T07:31:17;95487.94;;;38.28;22.05
40245;BME280;25963;42.694;23.600;2022-07-23T07:33:43;95478.22;;;38.70;20.95
40245;BME280;25963;42.694;23.600;2022-07-23T07:36:08;95467.22;;;39.13;22.44
40245;BME280;25963;42.694;23.600;2022-07-23T07:38:34;95477.09;;;39.21;23.40
40245;BME280;25963;42.694;23.600;2022-07-23T07:41:00;95476.28;;;38.85;23.65
40245;BME280;25963;42.694;23.600;2022-07-23T07:43:26;95462.09;;;38.86;21.83
40245;BME280;25963;42.694;23.600;2022-07-23T07:45:51;95468.28;;;38.33;21.73
40245;BME280;25963;42.694;23.600;2022-07-23T07:48:17;95465.50;;;38.26;22.34
40245;BME280;25963;42.694;23.600;2022-07-23T07:50:43;95467.41;;;38.07;22.80
40245;BME280;25963;42.694;23.600;2022-07-23T07:53:08;95462.84;;;38.58;22.52
40245;BME280;25963;42.694;23.600;2022-07-23T07:55:35;95457.16;;;38.01;24.23
40245;BME280;25963;42.694;23.600;2022-07-23T07:58:00;95457.41;;;38.87;24.06
40245;BME280;25963;42.694;23.600;2022-07-23T08:00:26;95457.38;;;39.22;22.64
40245;BME280;25963;42.694;23.600;2022-07-23T08:02:54;95446.72;;;39.42;21.09
40245;BME280;25963;42.694;23.600;2022-07-23T08:05:26;95446.66;;;39.67;22.64
40245;BME280;25963;42.694;23.600;2022-07-23T08:07:52;95450.22;;;38.43;22.44
40245;BME280;25963;42.694;23.600;2022-07-23T08:10:18;95438.84;;;39.16;24.01
40245;BME280;25963;42.694;23.600;2022-07-23T08:12:48;95447.94;;;38.95;21.17
40245;BME280;25963;42.694;23.600;2022-07-23T08:15:16;95444.81;;;38.89;21.63
40245;BME280;25963;42.694;23.600;2022-07-23T08:17:42;95438.06;;;39.37;22.86
40245;BME280;25963;42.694;23.600;2022-07-23T08:20:10;95442.44;;;39.02;22.97
40245;BME280;25963;42.694;23.600;2022-07-23T08:22:59;95435.09;;;40.05;23.11
40245;BME280;25963;42.694;23.600;2022-07-23T08:25:32;95439.03;;;40.18;19.94
40245;BME280;25963;42.694;23.600;2022-07-23T08:27:59;95444.97;;;40.79;21.49
40245;BME280;25963;42.694;23.600;2022-07-23T08:30:27;95437.44;;;40.80;20.18
40245;BME280;25963;42.694;23.600;2022-07-23T08:35:25;95445.47;;;39.83;20.56
40245;BME280;25963;42.694;23.600;2022-07-23T08:37:51;95442.53;;;40.22;19.85
40245;BME280;25963;42.694;23.600;2022-07-23T08:40:17;95438.13;;;40.39;20.77
40245;BME280;25963;42.694;23.600;2022-07-23T08:42:48;95427.94;;;40.25;22.76
40245;BME280;25963;42.694;23.600;2022-07-23T08:45:17;95430.28;;;40.23;21.60
40245;BME280;25963;42.694;23.600;2022-07-23T08:47:44;95434.84;;;39.60;21.77
40245;BME280;25963;42.694;23.600;2022-07-23T08:50:10;95443.66;;;40.32;20.92
40245;BME280;25963;42.694;23.600;2022-07-23T08:52:37;95440.69;;;40.68;21.54
40245;BME280;25963;42.694;23.600;2022-07-23T08:55:04;95432.88;;;41.11;22.29
40245;BME280;25963;42.694;23.600;2022-07-23T08:57:29;95430.13;;;41.53;19.46
40245;BME280;25963;42.694;23.600;2022-07-23T08:59:56;95434.47;;;41.09;19.57
40245;BME280;25963;42.694;23.600;2022-07-23T09:02:21;95427.72;;;41.55;19.86
40245;BME280;25963;42.694;23.600;2022-07-23T09:04:49;95430.03;;;40.70;18.07
40245;BME280;25963;42.694;23.600;2022-07-23T09:07:15;95426.13;;;40.60;20.33
40245;BME280;25963;42.694;23.600;2022-07-23T09:09:40;95419.09;;;41.45;19.11
40245;BME280;25963;42.694;23.600;2022-07-23T09:12:08;95417.97;;;41.77;18.80
40245;BME280;25963;42.694;23.600;2022-07-23T09:14:42;95417.47;;;41.51;17.75
40245;BME280;25963;42.694;23.600;2022-07-23T09:17:15;95413.19;;;41.47;20.80
40245;BME280;25963;42.694;23.600;2022-07-23T09:19:42;95416.88;;;41.67;19.95
40245;BME280;25963;42.694;23.600;2022-07-23T09:25:12;95408.44;;;42.12;19.28
40245;BME280;25963;42.694;23.600;2022-07-23T09:27:56;95409.84;;;42.55;18.16
40245;BME280;25963;42.694;23.600;2022-07-23T09:30:23;95403.84;;;43.07;17.56
40245;BME280;25963;42.694;23.600;2022-07-23T09:35:48;95405.63;;;42.97;18.02
40245;BME280;25963;42.694;23.600;2022-07-23T09:38:14;95398.50;;;43.20;17.27
40245;BME280;25963;42.694;23.600;2022-07-23T09:40:40;95386.41;;;43.06;16.98
40245;BME280;25963;42.694;23.600;2022-07-23T09:43:06;95394.28;;;43.12;18.73
40245;BME280;25963;42.694;23.600;2022-07-23T09:45:31;95394.81;;;43.46;16.51
40245;BME280;25963;42.694;23.600;2022-07-23T09:48:29;95392.25;;;43.59;15.60
40245;BME280;25963;42.694;23.600;2022-07-23T09:51:02;95394.50;;;43.44;16.14
40245;BME280;25963;42.694;23.600;2022-07-23T09:53:29;95380.88;;;43.90;15.32
40245;BME280;25963;42.694;23.600;2022-07-23T09:55:58;95385.31;;;43.47;14.15
40245;BME280;25963;42.694;23.600;2022-07-23T09:58:25;95387.34;;;43.23;14.96
40245;BME280;25963;42.694;23.600;2022-07-23T10:00:55;95380.00;;;42.62;15.28
40245;BME280;25963;42.694;23.600;2022-07-23T10:03:23;95373.81;;;43.25;16.79
40245;BME280;25963;42.694;23.600;2022-07-23T10:05:50;95370.16;;;43.72;16.76
40245;BME280;25963;42.694;23.600;2022-07-23T10:08:18;95369.34;;;43.91;17.05
40245;BME280;25963;42.694;23.600;2022-07-23T10:10:46;95362.63;;;43.29;16.56
40245;BME280;25963;42.694;23.600;2022-07-23T10:13:11;95359.78;;;43.52;15.47
40245;BME280;25963;42.694;23.600;2022-07-23T10:15:40;95355.28;;;42.75;15.61
40245;BME280;25963;42.694;23.600;2022-07-23T10:18:07;95354.47;;;43.82;16.27
40245;BME280;25963;42.694;23.600;2022-07-23T10:20:35;95355.97;;;44.23;16.13
40245;BME280;25963;42.694;23.600;2022-07-23T10:23:31;95351.97;;;44.24;15.21
40245;BME280;25963;42.694;23.600;2022-07-23T10:26:05;95355.69;;;44.53;16.07
40245;BME280;25963;42.694;23.600;2022-07-23T10:34:43;95350.41;;;44.23;14.73
40245;BME280;25963;42.694;23.600;2022-07-23T10:37:32;95339.78;;;44.70;14.18
40245;BME280;25963;42.694;23.600;2022-07-23T10:40:10;95344.13;;;43.82;15.63
40245;BME280;25963;42.694;23.600;2022-07-23T10:42:37;95334.88;;;44.25;16.09
40245;BME280;25963;42.694;23.600;2022-07-23T10:45:23;95336.63;;;44.68;16.31
40245;BME280;25963;42.694;23.600;2022-07-23T10:47:49;95326.69;;;45.16;14.54
40245;BME280;25963;42.694;23.600;2022-07-23T10:50:27;95324.50;;;45.07;15.00
40245;BME280;25963;42.694;23.600;2022-07-23T10:53:19;95323.72;;;45.07;14.20
40245;BME280;25963;42.694;23.600;2022-07-23T10:55:51;95307.31;;;44.96;15.63
40245;BME280;25963;42.694;23.600;2022-07-23T10:58:20;95320.91;;;45.23;15.03
40245;BME280;25963;42.694;23.600;2022-07-23T11:00:46;95312.66;;;44.58;13.10
40245;BME280;25963;42.694;23.600;2022-07-23T11:05:53;95308.31;;;45.19;14.31
40245;BME280;25963;42.694;23.600;2022-07-23T11:08:19;95291.44;;;44.48;13.44
40245;BME280;25963;42.694;23.600;2022-07-23T11:13:29;95298.13;;;43.81;14.57
40245;BME280;25963;42.694;23.600;2022-07-23T11:24:05;95294.84;;;45.17;14.07
40245;BME280;25963;42.694;23.600;2022-07-23T11:26:43;95270.47;;;45.21;14.53
40245;BME280;25963;42.694;23.600;2022-07-23T11:34:35;95283.59;;;44.92;13.90
40245;BME280;25963;42.694;23.600;2022-07-23T11:37:05;95276.31;;;44.65;13.30
40245;BME280;25963;42.694;23.600;2022-07-23T11:39:34;95273.31;;;43.90;13.97
40245;BME280;25963;42.694;23.600;2022-07-23T11:42:02;95264.94;;;45.05;14.77
40245;BME280;25963;42.694;23.600;2022-07-23T11:44:31;95265.81;;;44.73;13.83
40245;BME280;25963;42.694;23.600;2022-07-23T11:47:07;95263.72;;;44.60;13.94
40245;BME280;25963;42.694;23.600;2022-07-23T11:49:35;95259.47;;;44.39;13.72
40245;BME280;25963;42.694;23.600;2022-07-23T11:54:30;95257.34;;;43.94;14.34
40245;BME280;25963;42.694;23.600;2022-07-23T11:56:57;95264.28;;;43.86;14.76
40245;BME280;25963;42.694;23.600;2022-07-23T11:59:24;95259.09;;;43.32;14.43
40245;BME280;25963;42.694;23.600;2022-07-23T12:02:03;95257.97;;;42.86;15.11
40245;BME280;25963;42.694;23.600;2022-07-23T12:04:43;95248.59;;;42.80;15.53
40245;BME280;25963;42.694;23.600;2022-07-23T12:07:32;95257.16;;;43.29;15.39
40245;BME280;25963;42.694;23.600;2022-07-23T12:12:44;95248.91;;;44.34;14.83
40245;BME280;25963;42.694;23.600;2022-07-23T12:15:14;95241.03;;;44.46;14.00
40245;BME280;25963;42.694;23.600;2022-07-23T12:17:40;95249.94;;;44.40;12.96
40245;BME280;25963;42.694;23.600;2022-07-23T12:20:08;95238.56;;;44.80;14.51
40245;BME280;25963;42.694;23.600;2022-07-23T12:22:42;95237.31;;;44.52;14.92
40245;BME280;25963;42.694;23.600;2022-07-23T12:25:16;95230.66;;;45.08;13.38
40245;BME280;25963;42.694;23.600;2022-07-23T12:27:43;95242.16;;;44.64;13.06
40245;BME280;25963;42.694;23.600;2022-07-23T12:30:54;95240.84;;;44.85;13.30
40245;BME280;25963;42.694;23.600;2022-07-23T12:33:28;95235.56;;;45.04;13.98
40245;BME280;25963;42.694;23.600;2022-07-23T12:35:56;95237.38;;;45.65;14.02
40245;BME280;25963;42.694;23.600;2022-07-23T12:38:23;95221.06;;;45.38;13.01
40245;BME280;25963;42.694;23.600;2022-07-23T12:43:28;95216.06;;;45.04;12.40
40245;BME280;25963;42.694;23.600;2022-07-23T12:46:10;95225.41;;;44.52;12.50
40245;BME280;25963;42.694;23.600;2022-07-23T12:51:22;95218.09;;;44.74;10.82
40245;BME280;25963;42.694;23.600;2022-07-23T12:53:48;95216.84;;;45.46;10.82
40245;BME280;25963;42.694;23.600;2022-07-23T12:56:21;95210.28;;;45.53;11.24
40245;BME280;25963;42.694;23.600;2022-07-23T12:58:58;95207.94;;;44.97;10.51
40245;BME280;25963;42.694;23.600;2022-07-23T13:01:39;95208.47;;;44.92;10.47
40245;BME280;25963;42.694;23.600;2022-07-23T13:04:08;95209.81;;;45.42;11.72
40245;BME280;25963;42.694;23.600;2022-07-23T13:06:45;95213.88;;;45.92;11.51
40245;BME280;25963;42.694;23.600;2022-07-23T13:09:16;95205.59;;;45.50;9.91
40245;BME280;25963;42.694;23.600;2022-07-23T13:11:43;95214.16;;;45.01;11.92
40245;BME280;25963;42.694;23.600;2022-07-23T13:14:09;95208.56;;;44.42;12.38
40245;BME280;25963;42.694;23.600;2022-07-23T13:16:34;95219.00;;;43.33;13.15
40245;BME280;25963;42.694;23.600;2022-07-23T13:19:00;95209.44;;;42.54;13.42
40245;BME280;25963;42.694;23.600;2022-07-23T13:21:27;95216.78;;;43.04;14.05
40245;BME280;25963;42.694;23.600;2022-07-23T13:23:53;95207.03;;;42.33;13.62
40245;BME280;25963;42.694;23.600;2022-07-23T13:26:19;95204.69;;;42.75;14.19
40245;BME280;25963;42.694;23.600;2022-07-23T13:28:44;95201.38;;;42.60;13.57
40245;BME280;25963;42.694;23.600;2022-07-23T13:31:10;95208.06;;;42.86;14.24
40245;BME280;25963;42.694;23.600;2022-07-23T13:33:36;95205.94;;;43.14;13.76
40245;BME280;25963;42.694;23.600;2022-07-23T13:36:02;95216.47;;;43.02;13.24